Time;durP1;ratioP1;P1;durP2;ratioP2;P2;SDS_P1;SDS_P2;PMS_P1;PMS_P2;Temp;Humidity;BMP_temperature;BMP_pressure;BME280_temperature;BME280_humidity;BME280_pressure;Samples;Min_cycle;Max_cycle;Signal;HPM_P1;HPM_P2
2021/06/14 00:00:09;;;;;;;8.45;1.65;;;;;;;15.88;86.31;100330.59;5090380;28;20098;-79
2021/06/14 00:02:35;;;;;;;3.35;1.48;;;;;;;15.90;86.67;100337.56;5091696;28;20036;-82
2021/06/14 00:05:00;;;;;;;3.67;1.60;;;;;;;15.84;87.42;100330.53;5092242;28;20053;-78
2021/06/14 00:07:26;;;;;;;3.97;1.80;;;;;;;15.37;88.13;100279.53;5091986;28;20121;-78
2021/06/14 00:09:51;;;;;;;4.03;1.73;;;;;;;15.65;87.73;100318.97;5091613;28;20177;-79
2021/06/14 00:12:21;;;;;;;4.22;1.70;;;;;;;15.60;87.71;100299.81;5091653;28;20024;-79
2021/06/14 00:17:55;;;;;;;5.13;1.80;;;;;;;15.18;90.80;100329.56;5092040;28;20145;-79
2021/06/14 00:20:22;;;;;;;6.22;2.00;;;;;;;15.23;89.64;100320.09;5091795;28;20020;-79
2021/06/14 00:23:07;;;;;;;5.35;2.00;;;;;;;15.24;89.79;100332.25;5091658;28;20522;-79
2021/06/14 00:25:35;;;;;;;5.15;1.40;;;;;;;14.76;90.00;100305.47;5091562;28;20016;-79
2021/06/14 00:28:03;;;;;;;5.28;1.42;;;;;;;14.89;90.73;100303.94;5091535;28;20035;-79
2021/06/14 00:30:37;;;;;;;4.50;1.75;;;;;;;14.97;89.99;100322.28;5073721;28;20036;-79
2021/06/14 00:33:03;;;;;;;4.40;1.80;;;;;;;14.88;90.23;100304.81;5073423;28;20024;-79
2021/06/14 00:35:29;;;;;;;4.47;1.45;;;;;;;15.06;90.47;100291.22;5091631;28;20035;-79
2021/06/14 00:37:54;;;;;;;4.30;1.50;;;;;;;15.05;89.59;100268.66;5073338;28;20028;-79
2021/06/14 00:40:20;;;;;;;4.82;1.35;;;;;;;15.46;89.14;100298.75;5091465;28;20024;-79
2021/06/14 00:42:46;;;;;;;2.90;1.50;;;;;;;15.59;88.60;100313.69;5091617;28;20028;-79
2021/06/14 00:45:16;;;;;;;4.22;1.80;;;;;;;15.50;88.90;100326.53;5048563;28;20628;-79
2021/06/14 00:47:46;;;;;;;7.22;1.75;;;;;;;14.73;91.01;100323.63;5049015;28;20128;-79
2021/06/14 00:50:13;;;;;;;7.47;2.17;;;;;;;14.20;92.76;100243.84;5048767;28;20124;-75
2021/06/14 00:52:40;;;;;;;5.93;1.58;;;;;;;14.59;93.58;100325.91;5048898;28;20558;-78
2021/06/14 00:55:08;;;;;;;2.25;1.52;;;;;;;14.67;93.28;100332.16;5048697;28;20040;-75
2021/06/14 00:57:34;;;;;;;4.00;1.60;;;;;;;14.76;93.18;100331.44;5048549;28;20125;-76
2021/06/14 01:00:00;;;;;;;4.00;1.60;;;;;;;14.68;92.94;100323.53;5048527;28;20064;-76
2021/06/14 01:02:26;;;;;;;5.53;1.65;;;;;;;14.22;93.03;100234.38;5048657;28;20041;-76
2021/06/14 01:04:51;;;;;;;2.35;1.55;;;;;;;14.43;94.35;100290.13;5048407;28;20033;-75
2021/06/14 01:07:17;;;;;;;3.10;1.58;;;;;;;14.29;92.74;100230.13;5048619;28;20029;-76
2021/06/14 01:09:42;;;;;;;3.67;1.60;;;;;;;14.76;92.34;100307.19;5048466;28;20049;-76
2021/06/14 01:12:09;;;;;;;5.15;1.50;;;;;;;14.96;91.18;100308.38;5015490;28;20041;-76
2021/06/14 01:15:09;;;;;;;5.97;1.50;;;;;;;14.93;91.71;100323.94;5048655;28;20045;-76
2021/06/14 01:17:42;;;;;;;4.47;1.45;;;;;;;15.00;91.48;100311.91;5048628;28;20025;-76
2021/06/14 01:20:41;;;;;;;5.10;1.70;;;;;;;15.00;91.10;100315.41;5048539;28;20037;-76
2021/06/14 01:23:17;;;;;;;4.47;1.58;;;;;;;15.13;89.86;100313.88;5081505;28;20028;-76
2021/06/14 01:26:00;;;;;;;5.38;1.40;;;;;;;15.20;89.42;100315.72;5094918;28;20046;-76
2021/06/14 01:28:28;;;;;;;4.90;1.83;;;;;;;15.00;90.83;100307.59;5095337;28;20028;-75
2021/06/14 01:30:55;;;;;;;3.67;1.58;;;;;;;15.07;90.91;100311.16;5094881;28;20115;-75
2021/06/14 01:33:25;;;;;;;2.20;1.40;;;;;;;15.14;90.42;100310.44;5095076;28;20024;-76
2021/06/14 01:35:56;;;;;;;4.47;1.67;;;;;;;14.95;90.39;100282.38;5094891;28;20036;-79
2021/06/14 01:38:24;;;;;;;6.60;1.95;;;;;;;14.93;90.22;100279.75;5077066;28;20024;-76
2021/06/14 01:40:53;;;;;;;5.05;1.73;;;;;;;14.94;91.09;100311.81;5094994;28;20115;-76
2021/06/14 01:43:24;;;;;;;6.20;1.80;;;;;;;14.79;91.67;100317.63;5094726;28;20024;-76
2021/06/14 01:45:55;;;;;;;3.38;1.80;;;;;;;14.92;90.86;100309.19;5094768;28;20510;-75
2021/06/14 01:48:22;;;;;;;3.78;2.00;;;;;;;15.11;90.58;100309.50;5094893;28;20031;-76
2021/06/14 01:50:49;;;;;;;2.75;1.60;;;;;;;15.09;90.27;100290.38;5094375;28;20020;-76
2021/06/14 01:53:15;;;;;;;3.83;1.80;;;;;;;15.04;89.92;100290.31;5094618;28;20555;-76
2021/06/14 01:55:42;;;;;;;2.40;1.60;;;;;;;15.04;90.16;100279.91;5094473;28;20422;-76
2021/06/14 01:58:08;;;;;;;3.97;1.58;;;;;;;15.02;90.22;100298.09;5094669;28;20375;-76
2021/06/14 02:00:36;;;;;;;10.10;1.90;;;;;;;14.81;91.17;100301.22;5094072;28;20052;-76
2021/06/14 02:03:02;;;;;;;6.00;1.65;;;;;;;14.72;91.31;100291.53;5094511;28;20031;-76
2021/06/14 02:05:30;;;;;;;5.07;1.83;;;;;;;14.85;91.02;100303.03;5094317;28;20031;-75
2021/06/14 02:07:56;;;;;;;3.75;1.60;;;;;;;14.81;90.77;100301.22;5076249;28;20394;-76
2021/06/14 02:10:23;;;;;;;4.70;1.65;;;;;;;14.55;90.93;100223.69;5094055;28;20092;-76
2021/06/14 02:12:50;;;;;;;2.65;1.80;;;;;;;15.11;90.28;100286.09;5093981;28;20028;-75
2021/06/14 02:15:18;;;;;;;11.00;1.55;;;;;;;15.19;89.56;100271.50;5094308;28;20043;-75
2021/06/14 02:17:45;;;;;;;6.97;1.80;;;;;;;15.41;89.57;100292.59;5094111;28;20036;-76
2021/06/14 02:20:11;;;;;;;4.55;2.00;;;;;;;15.35;89.18;100294.28;5093980;28;20028;-76
2021/06/14 02:22:38;;;;;;;7.97;2.20;;;;;;;15.19;89.67;100289.69;5094466;28;20461;-78
2021/06/14 02:25:41;;;;;;;4.10;1.90;;;;;;;15.16;89.80;100297.44;5094453;28;20028;-76
2021/06/14 02:28:07;;;;;;;5.95;2.50;;;;;;;15.26;88.97;100301.06;5093690;28;20501;-76
2021/06/14 02:30:32;;;;;;;6.63;1.85;;;;;;;15.26;88.70;100281.13;5093515;28;20032;-76
2021/06/14 02:32:58;;;;;;;5.03;2.50;;;;;;;15.08;87.90;100245.31;5093554;28;20501;-76
2021/06/14 02:35:25;;;;;;;6.53;2.60;;;;;;;15.16;88.16;100274.91;5093490;28;20032;-75
2021/06/14 02:37:56;;;;;;;4.72;2.30;;;;;;;15.26;87.55;100294.13;5093934;28;20077;-76
2021/06/14 02:40:29;;;;;;;5.97;2.00;;;;;;;15.25;87.90;100307.97;5093687;28;20032;-77
2021/06/14 02:42:58;;;;;;;8.38;1.83;;;;;;;15.26;86.98;100291.50;5093608;28;20023;-76
2021/06/14 02:45:25;;;;;;;5.38;1.65;;;;;;;15.10;87.19;100246.19;5093944;28;20028;-76
2021/06/14 02:47:51;;;;;;;9.98;2.45;;;;;;;15.33;86.89;100279.50;5093751;28;20024;-76
2021/06/14 02:50:19;;;;;;;6.90;1.80;;;;;;;15.48;87.03;100303.13;5093424;28;20042;-78
2021/06/14 02:52:48;;;;;;;5.18;1.55;;;;;;;15.52;86.50;100293.63;5075535;28;20039;-75
2021/06/14 02:55:17;;;;;;;7.40;1.83;;;;;;;15.57;86.42;100304.97;5093773;28;20032;-76
2021/06/14 02:57:52;;;;;;;7.50;2.15;;;;;;;15.56;85.96;100291.94;5093917;28;20138;-76
2021/06/14 03:00:19;;;;;;;4.75;1.70;;;;;;;15.43;86.24;100275.31;5070182;28;20052;-77
2021/06/14 03:02:44;;;;;;;11.23;2.30;;;;;;;15.52;86.54;100302.28;5072926;28;20029;-76
2021/06/14 03:05:29;;;;;;;4.25;1.70;;;;;;;15.49;87.02;100301.41;5073149;28;20078;-76
2021/06/14 03:07:57;;;;;;;3.78;1.73;;;;;;;15.46;87.25;100301.34;5072827;28;20481;-76
2021/06/14 03:10:25;;;;;;;8.23;2.00;;;;;;;15.43;86.83;100286.56;5073171;28;20029;-75
2021/06/14 03:12:56;;;;;;;5.47;1.65;;;;;;;15.60;86.02;100296.31;5070863;28;20174;-76
2021/06/14 03:15:25;;;;;;;8.80;2.30;;;;;;;15.59;86.60;100290.25;5072904;28;20017;-77
2021/06/14 03:18:23;;;;;;;5.07;1.70;;;;;;;15.29;88.03;100294.19;5072824;28;20024;-76
2021/06/14 03:20:52;;;;;;;5.25;1.70;;;;;;;15.08;89.00;100309.44;5072971;28;20278;-74
2021/06/14 03:23:17;;;;;;;5.65;2.20;;;;;;;15.13;89.01;100295.66;5072711;28;20391;-75
2021/06/14 03:25:43;;;;;;;6.40;1.98;;;;;;;14.99;90.05;100312.75;5072384;28;20036;-75
2021/06/14 03:31:31;;;;;;;6.88;2.03;;;;;;;14.85;90.99;100310.84;5072821;28;20039;-75
2021/06/14 03:33:57;;;;;;;5.15;2.00;;;;;;;14.75;91.88;100300.25;5072513;28;20035;-76
2021/06/14 03:36:24;;;;;;;5.57;2.17;;;;;;;14.81;92.17;100316.81;5072310;28;20112;-75
2021/06/14 03:38:51;;;;;;;10.05;2.30;;;;;;;14.57;92.23;100310.31;5067602;28;20032;-77
2021/06/14 03:41:18;;;;;;;7.47;1.85;;;;;;;14.24;93.26;100243.03;5071498;28;20024;-76
2021/06/14 03:43:44;;;;;;;4.65;1.95;;;;;;;14.86;92.23;100322.94;5073197;28;20024;-77
2021/06/14 03:46:10;;;;;;;4.35;1.70;;;;;;;14.90;91.17;100310.88;5072207;28;20017;-75
2021/06/14 03:48:36;;;;;;;4.65;2.05;;;;;;;14.74;90.72;100281.16;5071986;28;20043;-76
2021/06/14 03:53:56;;;;;;;4.32;1.83;;;;;;;14.43;90.92;100300.50;5072057;28;20079;-75
2021/06/14 03:56:23;;;;;;;7.10;1.83;;;;;;;14.45;93.00;100296.22;5072147;28;20025;-75
2021/06/14 03:58:49;;;;;;;4.50;1.88;;;;;;;14.55;93.26;100321.50;5071514;28;20089;-75
2021/06/14 04:01:15;;;;;;;4.10;1.67;;;;;;;14.70;91.66;100314.03;5087931;28;20032;-75
2021/06/14 04:03:42;;;;;;;3.88;1.80;;;;;;;14.44;92.33;100297.06;5085438;28;20028;-75
2021/06/14 04:06:07;;;;;;;6.13;2.00;;;;;;;14.47;91.83;100269.44;5091972;28;20031;-76
2021/06/14 04:08:36;;;;;;;5.90;1.80;;;;;;;14.65;91.28;100318.25;5092219;28;20028;-76
2021/06/14 04:11:02;;;;;;;4.75;1.60;;;;;;;14.55;91.25;100288.63;5091993;28;20031;-76
2021/06/14 04:13:27;;;;;;;4.45;1.90;;;;;;;14.63;90.29;100272.28;5092127;28;20035;-76
2021/06/14 04:15:53;;;;;;;3.17;1.60;;;;;;;15.02;90.36;100305.03;5091934;28;20419;-76
2021/06/14 04:18:18;;;;;;;2.47;1.65;;;;;;;14.86;89.23;100260.56;5091983;28;20410;-76
2021/06/14 04:20:44;;;;;;;4.72;2.03;;;;;;;14.95;88.72;100257.25;5091629;28;20395;-78
2021/06/14 04:23:27;;;;;;;3.22;1.80;;;;;;;15.16;88.40;100282.69;5091952;28;20407;-76
2021/06/14 04:25:56;;;;;;;4.63;2.05;;;;;;;15.33;87.78;100295.09;5091867;28;20039;-75
2021/06/14 04:28:21;;;;;;;3.50;1.60;;;;;;;15.59;86.76;100307.59;5091932;28;20023;-76
2021/06/14 04:30:46;;;;;;;2.78;2.15;;;;;;;15.57;85.80;100293.69;5091706;28;20536;-76
2021/06/14 04:33:12;;;;;;;4.78;1.80;;;;;;;15.55;87.09;100316.22;5091774;28;20058;-78
2021/06/14 04:35:37;;;;;;;3.63;1.90;;;;;;;15.57;87.84;100315.38;5091835;28;20031;-75
2021/06/14 04:38:03;;;;;;;7.00;2.00;;;;;;;15.67;86.88;100316.38;5087035;28;20028;-78
2021/06/14 04:40:47;;;;;;;5.63;1.92;;;;;;;15.75;86.27;100316.47;5089992;28;20032;-76
2021/06/14 04:43:12;;;;;;;2.47;1.80;;;;;;;15.67;86.16;100295.56;5082172;28;20103;-75
2021/06/14 04:45:38;;;;;;;2.90;1.73;;;;;;;15.77;86.46;100317.38;5076483;28;20107;-76
2021/06/14 04:48:04;;;;;;;5.13;2.17;;;;;;;15.46;86.32;100285.72;5071015;28;20634;-75
2021/06/14 04:50:29;;;;;;;5.68;1.88;;;;;;;15.67;87.28;100325.06;5071133;28;20028;-76
2021/06/14 04:52:56;;;;;;;4.20;1.98;;;;;;;15.70;87.44;100311.19;5071264;28;20060;-76
2021/06/14 04:55:22;;;;;;;3.08;2.05;;;;;;;15.84;86.47;100321.84;5070933;28;20086;-76
2021/06/14 04:57:47;;;;;;;3.63;1.90;;;;;;;15.85;85.91;100329.69;5070731;28;20028;-76
2021/06/14 05:03:34;;;;;;;9.70;2.47;;;;;;;15.90;86.57;100328.84;5091051;28;20177;-75
2021/06/14 05:06:00;;;;;;;5.72;2.00;;;;;;;15.95;86.66;100342.81;5091335;28;20106;-74
2021/06/14 05:08:25;;;;;;;4.95;2.10;;;;;;;15.80;87.18;100317.41;5091510;28;20422;-76
2021/06/14 05:10:51;;;;;;;5.07;2.35;;;;;;;15.95;87.84;100342.81;5090868;28;20049;-75
2021/06/14 05:13:17;;;;;;;6.30;4.53;;;;;;;15.90;87.45;100326.25;5074320;28;20150;-75
2021/06/14 05:15:43;;;;;;;3.72;2.20;;;;;;;15.92;86.89;100316.75;5070990;28;20036;-76
2021/06/14 05:18:08;;;;;;;4.38;2.35;;;;;;;15.66;87.65;100279.09;5071088;28;20055;-75
2021/06/14 05:20:35;;;;;;;6.22;2.30;;;;;;;16.08;87.86;100330.81;5070928;28;20052;-75
2021/06/14 05:23:03;;;;;;;3.25;2.33;;;;;;;15.98;85.67;100327.22;5070732;28;20029;-75
2021/06/14 05:25:29;;;;;;;2.90;1.70;;;;;;;15.61;85.30;100248.63;5070901;28;20483;-76
2021/06/14 05:27:54;;;;;;;5.43;2.30;;;;;;;16.12;84.18;100293.53;5071050;28;20035;-78
2021/06/14 05:30:20;;;;;;;5.25;1.95;;;;;;;16.45;82.21;100321.69;5070956;28;20403;-75
2021/06/14 05:32:46;;;;;;;4.28;2.03;;;;;;;16.23;81.72;100320.56;5071027;28;20035;-75
2021/06/14 05:35:12;;;;;;;2.58;1.85;;;;;;;16.39;82.50;100313.81;5084903;28;20032;-76
2021/06/14 05:37:37;;;;;;;3.78;1.85;;;;;;;16.66;78.43;100318.44;5084772;28;20552;-76
2021/06/14 05:40:05;;;;;;;3.35;1.80;;;;;;;16.50;79.42;100272.25;5067699;28;20048;-77
2021/06/14 05:42:30;;;;;;;1.85;1.50;;;;;;;16.82;74.72;100319.44;5068253;28;20064;-76
2021/06/14 05:44:56;;;;;;;4.50;2.10;;;;;;;17.02;78.53;100313.53;5067337;28;20079;-75
2021/06/14 05:47:22;;;;;;;6.57;3.88;;;;;;;17.20;80.49;100310.22;5068673;28;20024;-75
2021/06/14 05:49:48;;;;;;;2.45;1.80;;;;;;;17.00;77.53;100243.97;5068371;28;20036;-75
2021/06/14 05:52:13;;;;;;;2.85;1.92;;;;;;;17.47;77.13;100321.72;5068492;28;20032;-78
2021/06/14 05:54:39;;;;;;;11.18;2.00;;;;;;;17.57;77.38;100313.06;5067007;28;20040;-75
2021/06/14 05:57:05;;;;;;;5.65;2.00;;;;;;;17.55;75.55;100312.16;5066971;28;20021;-76
2021/06/14 05:59:31;;;;;;;2.42;1.58;;;;;;;17.35;70.99;100306.84;5065628;28;20048;-75
2021/06/14 06:01:57;;;;;;;5.85;1.67;;;;;;;16.97;72.75;100266.59;5058929;28;21531;-74
2021/06/14 06:04:22;;;;;;;3.45;1.60;;;;;;;17.28;73.63;100308.53;5058888;28;20024;-76
2021/06/14 06:06:48;;;;;;;3.38;1.80;;;;;;;17.20;74.15;100297.16;5057593;28;20107;-75
2021/06/14 06:09:13;;;;;;;2.35;1.65;;;;;;;17.26;74.19;100310.25;5058593;28;20109;-75
2021/06/14 06:11:39;;;;;;;3.85;2.05;;;;;;;17.33;73.45;100290.28;5058120;28;20032;-76
2021/06/14 06:14:05;;;;;;;5.28;1.83;;;;;;;17.76;66.21;100310.56;5062882;28;20117;-75
2021/06/14 06:16:31;;;;;;;3.35;1.73;;;;;;;17.79;72.59;100307.94;5063750;28;20020;-75
2021/06/14 06:18:56;;;;;;;2.58;1.88;;;;;;;17.60;72.20;100247.81;5064254;28;20021;-75
2021/06/14 06:21:22;;;;;;;4.95;2.03;;;;;;;18.13;72.39;100310.75;5062397;28;20028;-76
2021/06/14 06:23:47;;;;;;;4.45;2.20;;;;;;;18.15;73.04;100305.50;5064273;28;20020;-74
2021/06/14 06:26:13;;;;;;;4.05;2.00;;;;;;;18.12;70.01;100314.22;5063716;28;20021;-75
2021/06/14 06:28:38;;;;;;;5.65;2.38;;;;;;;18.00;70.94;100299.34;5062582;28;20040;-76
2021/06/14 06:31:04;;;;;;;9.57;2.60;;;;;;;17.91;76.20;100302.78;5064437;28;20025;-76
2021/06/14 06:33:29;;;;;;;2.90;2.00;;;;;;;18.20;71.02;100307.25;5063347;28;20028;-76
2021/06/14 06:35:55;;;;;;;3.28;1.70;;;;;;;17.87;71.52;100290.56;5078618;28;20540;-75
2021/06/14 06:38:20;;;;;;;4.93;2.03;;;;;;;17.84;70.02;100315.81;5063931;28;20111;-77
2021/06/14 06:43:31;;;;;;;7.40;2.40;;;;;;;17.67;68.94;100261.78;5073594;28;20035;-78
2021/06/14 06:45:57;;;;;;;1.85;1.50;;;;;;;17.84;66.63;100300.13;5073465;28;20028;-75
2021/06/14 06:48:22;;;;;;;5.78;2.08;;;;;;;17.80;68.82;100312.31;5073512;28;20035;-75
2021/06/14 06:50:49;;;;;;;2.53;1.70;;;;;;;17.92;66.54;100303.66;5073475;28;20028;-75
2021/06/14 06:53:15;;;;;;;3.40;1.90;;;;;;;18.07;68.01;100308.09;5073985;28;20121;-75
2021/06/14 06:55:40;;;;;;;4.82;1.88;;;;;;;18.32;66.95;100302.94;5073701;28;20071;-76
2021/06/14 06:58:06;;;;;;;2.88;1.85;;;;;;;18.16;62.98;100310.72;5073586;28;20035;-75
2021/06/14 07:00:31;;;;;;;4.07;1.88;;;;;;;18.22;67.37;100308.16;5071003;28;20056;-75
2021/06/14 07:02:57;;;;;;;4.35;1.90;;;;;;;18.17;67.77;100296.81;5073343;28;20479;-75
2021/06/14 07:05:25;;;;;;;2.47;1.85;;;;;;;18.31;66.64;100286.38;5073259;28;20082;-80
2021/06/14 07:10:38;;;;;;;5.18;1.90;;;;;;;18.24;64.17;100295.97;5072995;28;20090;-75
2021/06/14 07:13:04;;;;;;;3.65;1.80;;;;;;;18.43;63.22;100277.72;5072963;28;20476;-76
2021/06/14 07:15:33;;;;;;;5.30;2.10;;;;;;;18.46;61.74;100251.56;5072982;28;20035;-79
2021/06/14 07:17:59;;;;;;;3.17;1.77;;;;;;;18.16;62.00;100221.03;5073000;28;20081;-75
2021/06/14 07:20:27;;;;;;;4.50;2.20;;;;;;;18.38;62.45;100261.13;5072499;28;20053;-75
2021/06/14 07:22:53;;;;;;;6.10;2.17;;;;;;;18.35;66.44;100274.19;5073041;28;20024;-76
2021/06/14 07:25:18;;;;;;;3.10;2.00;;;;;;;18.44;62.41;100279.44;5072140;28;20036;-75
2021/06/14 07:27:44;;;;;;;3.40;2.08;;;;;;;18.40;61.69;100228.88;5056116;28;20039;-75
2021/06/14 07:30:14;;;;;;;2.35;1.88;;;;;;;18.90;61.59;100270.75;5052695;28;20112;-76
2021/06/14 07:32:41;;;;;;;2.42;1.88;;;;;;;19.19;57.36;100288.19;5052552;28;20094;-77
2021/06/14 07:35:07;;;;;;;4.80;1.90;;;;;;;19.18;58.14;100269.00;5052632;28;20560;-76
2021/06/14 07:37:33;;;;;;;5.00;1.83;;;;;;;19.20;57.57;100264.66;5069730;28;20027;-76
2021/06/14 07:39:58;;;;;;;2.60;1.33;;;;;;;19.36;57.21;100285.53;5072587;28;20024;-78
2021/06/14 07:42:24;;;;;;;3.92;1.70;;;;;;;19.49;55.96;100274.19;5072347;28;20060;-76
2021/06/14 07:44:50;;;;;;;4.30;1.73;;;;;;;19.49;55.75;100268.94;5072649;28;20035;-76
2021/06/14 07:47:15;;;;;;;3.88;1.65;;;;;;;19.70;56.84;100283.72;5072547;28;20031;-76
2021/06/14 07:49:42;;;;;;;3.30;1.52;;;;;;;19.58;56.59;100257.56;5072472;28;20078;-75
2021/06/14 07:52:08;;;;;;;6.18;1.98;;;;;;;19.69;56.27;100260.16;5072374;28;20028;-76
2021/06/14 07:57:18;;;;;;;5.30;1.83;;;;;;;19.64;57.50;100225.22;5072176;28;20077;-75
2021/06/14 07:59:43;;;;;;;3.38;1.60;;;;;;;19.89;53.47;100226.03;5071079;28;20061;-76
2021/06/14 08:02:09;;;;;;;3.17;1.58;;;;;;;20.14;54.61;100278.31;5071039;28;20032;-75
2021/06/14 08:04:35;;;;;;;4.90;1.65;;;;;;;20.11;52.95;100263.47;5072049;28;20021;-78
2021/06/14 08:07:00;;;;;;;2.95;1.70;;;;;;;19.94;54.19;100287.13;5071933;28;20035;-78
2021/06/14 08:09:30;;;;;;;5.57;1.70;;;;;;;19.54;53.76;100279.41;5071777;28;20435;-76
2021/06/14 08:11:56;;;;;;;;;;;;;;;19.67;56.14;100290.69;5072315;28;20036;-77
2021/06/14 08:14:22;;;;;;;4.28;1.60;;;;;;;19.63;53.63;100289.84;5070905;28;19912;-76
2021/06/14 08:16:48;;;;;;;3.92;1.60;;;;;;;19.83;54.22;100287.19;5071814;28;20031;-77
2021/06/14 08:22:24;;;;;;;2.85;1.42;;;;;;;19.78;55.11;100285.44;5029632;28;20412;-77
2021/06/14 08:25:11;;;;;;;8.23;1.85;;;;;;;19.90;55.69;100279.28;5027566;28;20041;-78
2021/06/14 08:27:42;;;;;;;2.42;1.58;;;;;;;20.34;54.26;100271.19;5019048;28;20057;-76
2021/06/14 08:30:10;;;;;;;7.90;1.90;;;;;;;20.33;55.12;100247.59;5029530;28;20030;-76
2021/06/14 08:32:36;;;;;;;3.15;1.70;;;;;;;19.98;55.43;100261.78;5028709;28;20534;-79
2021/06/14 08:35:39;;;;;;;3.20;1.77;;;;;;;20.02;56.78;100264.38;5028574;28;20064;-79
2021/06/14 08:38:05;;;;;;;5.30;1.83;;;;;;;19.82;56.21;100261.81;4990331;28;20037;-78
2021/06/14 08:40:34;;;;;;;4.18;1.70;;;;;;;19.82;56.68;100230.38;4989807;28;20481;-80
2021/06/14 08:43:04;;;;;;;4.78;2.00;;;;;;;19.80;56.52;100260.97;4990082;28;20034;-78
2021/06/14 08:45:35;;;;;;;6.88;1.80;;;;;;;20.20;56.29;100252.94;4989839;28;20030;-78
2021/06/14 08:48:01;;;;;;;5.60;2.40;;;;;;;20.12;54.13;100238.13;4989869;28;20471;-76
2021/06/14 08:50:27;;;;;;;4.00;1.73;;;;;;;20.20;53.75;100268.66;4989812;28;20421;-78
2021/06/14 08:52:54;;;;;;;4.30;1.80;;;;;;;20.11;52.59;100260.84;4989674;28;20062;-78
2021/06/14 08:55:20;;;;;;;5.03;1.92;;;;;;;19.79;52.64;100232.16;5012803;28;20036;-77
2021/06/14 08:57:46;;;;;;;4.45;2.10;;;;;;;20.01;54.83;100248.66;4999871;28;20508;-80
2021/06/14 09:00:33;;;;;;;2.13;1.80;;;;;;;19.93;55.42;100253.09;5064919;28;20048;-81
2021/06/14 09:02:58;;;;;;;3.15;2.05;;;;;;;19.96;56.80;100250.44;5070404;28;20524;-76
2021/06/14 09:05:24;;;;;;;2.42;1.88;;;;;;;19.84;53.19;100209.47;5069469;28;20017;-79
2021/06/14 09:07:52;;;;;;;3.58;2.55;;;;;;;19.99;55.48;100232.09;5068506;28;20123;-77
2021/06/14 09:10:30;;;;;;;4.53;2.10;;;;;;;20.22;58.04;100245.03;5069331;28;20411;-75
2021/06/14 09:13:17;;;;;;;5.28;1.80;;;;;;;19.94;53.42;100245.22;5071100;28;20471;-76
2021/06/14 09:15:45;;;;;;;6.53;2.22;;;;;;;20.11;55.40;100252.09;5071111;28;20059;-75
2021/06/14 09:18:15;;;;;;;5.07;2.60;;;;;;;20.09;52.54;100223.28;5070971;28;20051;-76
2021/06/14 09:20:56;;;;;;;5.53;2.00;;;;;;;19.91;53.69;100187.56;5071043;28;20521;-78
2021/06/14 09:23:22;;;;;;;7.43;2.35;;;;;;;20.20;51.22;100241.59;5071129;28;20498;-77
2021/06/14 09:25:49;;;;;;;3.70;1.95;;;;;;;20.15;51.25;100246.84;5071082;28;20487;-74
2021/06/14 09:28:15;;;;;;;4.97;1.90;;;;;;;20.25;53.04;100246.78;5070828;28;20029;-77
2021/06/14 09:30:40;;;;;;;5.43;2.38;;;;;;;20.55;53.74;100243.06;5068715;28;20455;-78
2021/06/14 09:33:29;;;;;;;2.85;1.60;;;;;;;20.67;48.32;100236.84;5068779;28;20116;-78
2021/06/14 09:36:06;;;;;;;3.22;1.80;;;;;;;20.87;55.42;100238.47;5065980;28;20044;-79
2021/06/14 09:38:32;;;;;;;3.60;1.95;;;;;;;20.29;52.35;100167.25;5068541;28;20497;-78
2021/06/14 09:40:57;;;;;;;4.55;1.98;;;;;;;20.67;50.27;100210.63;5068542;28;20060;-82
2021/06/14 09:43:26;;;;;;;5.10;2.20;;;;;;;20.98;49.28;100226.97;5044921;28;20021;-82
2021/06/14 09:45:57;;;;;;;5.63;2.35;;;;;;;20.97;53.25;100185.00;5065417;28;20543;-82
2021/06/14 09:48:28;;;;;;;3.85;2.15;;;;;;;21.30;52.51;100203.91;5048023;28;20039;-81
2021/06/14 09:50:56;;;;;;;7.03;2.10;;;;;;;20.64;49.36;100222.00;5044928;28;20052;-82
2021/06/14 09:53:26;;;;;;;5.45;2.28;;;;;;;20.28;52.74;100216.16;5060770;28;20121;-83
2021/06/14 09:55:52;;;;;;;6.60;2.00;;;;;;;20.01;52.45;100198.88;5060361;28;20037;-81
2021/06/14 09:58:23;;;;;;;7.15;1.98;;;;;;;20.02;53.12;100234.69;5058171;28;20599;-77
2021/06/14 10:01:02;;;;;;;5.38;1.77;;;;;;;20.01;52.82;100231.22;5059583;28;20045;-82
2021/06/14 10:03:39;;;;;;;3.33;1.90;;;;;;;19.75;53.67;100239.19;5029162;28;20045;-85
2021/06/14 10:06:05;;;;;;;4.45;1.83;;;;;;;19.55;56.42;100237.50;5033394;28;20051;-83
2021/06/14 10:08:33;;;;;;;4.25;2.25;;;;;;;19.28;59.03;100242.81;5050947;28;20713;-80
2021/06/14 10:11:04;;;;;;;5.20;2.28;;;;;;;18.91;62.33;100223.69;5023601;28;20120;-80
2021/06/14 10:13:31;;;;;;;3.92;2.80;;;;;;;18.68;64.83;100247.22;5043787;28;20083;-81
2021/06/14 10:16:23;;;;;;;6.25;2.35;;;;;;;18.67;62.87;100242.00;5040204;28;20037;-82
2021/06/14 10:18:58;;;;;;;16.63;2.83;;;;;;;18.65;64.42;100241.13;4981673;28;20465;-81
2021/06/14 10:21:30;;;;;;;5.72;2.78;;;;;;;18.82;62.02;100236.75;4982774;28;20050;-80
2021/06/14 10:24:00;;;;;;;7.43;2.35;;;;;;;19.04;63.16;100242.88;4983727;28;20042;-83
2021/06/14 10:26:27;;;;;;;4.82;2.38;;;;;;;19.25;59.84;100238.44;4982048;28;20064;-83
2021/06/14 10:28:54;;;;;;;4.03;2.40;;;;;;;19.37;60.72;100245.41;4986230;28;20479;-83
2021/06/14 10:31:20;;;;;;;8.73;2.50;;;;;;;19.45;60.55;100241.03;4986067;28;20109;-84
2021/06/14 10:33:48;;;;;;;4.55;2.83;;;;;;;19.62;64.19;100230.47;4992187;28;20041;-84
2021/06/14 10:36:15;;;;;;;6.78;3.00;;;;;;;19.56;66.14;100197.34;5030403;28;20111;-82
2021/06/14 10:38:46;;;;;;;4.97;2.25;;;;;;;19.83;63.39;100231.31;5028284;28;20030;-82
2021/06/14 10:41:12;;;;;;;4.97;2.47;;;;;;;19.79;62.99;100229.53;5030179;28;20036;-83
2021/06/14 10:43:39;;;;;;;7.32;2.30;;;;;;;19.11;62.39;100120.75;5027749;28;20104;-81
2021/06/14 10:48:57;;;;;;;6.47;2.72;;;;;;;20.07;62.64;100232.91;5031526;28;20594;-80
2021/06/14 10:51:24;;;;;;;3.88;2.30;;;;;;;20.14;59.46;100221.50;5031050;28;20079;-81
2021/06/14 10:53:59;;;;;;;5.63;2.60;;;;;;;19.83;59.50;100174.53;5030523;28;20034;-81
2021/06/14 10:56:25;;;;;;;6.00;2.40;;;;;;;20.19;58.03;100221.50;5066189;28;20037;-82
2021/06/14 10:58:58;;;;;;;3.97;2.60;;;;;;;20.06;58.09;100215.44;5073132;28;20028;-81
2021/06/14 11:01:33;;;;;;;5.93;2.53;;;;;;;20.31;59.44;100207.41;5076313;28;20407;-81
2021/06/14 11:03:59;;;;;;;6.80;2.75;;;;;;;20.47;58.45;100206.44;5084964;28;20028;-80
2021/06/14 11:06:28;;;;;;;7.43;2.38;;;;;;;20.57;57.50;100208.97;5072972;28;20029;-76
2021/06/14 11:08:58;;;;;;;3.53;2.35;;;;;;;20.41;53.97;100203.84;5072959;28;20022;-76
2021/06/14 11:11:24;;;;;;;4.85;2.70;;;;;;;20.22;57.94;100192.63;5068364;28;20032;-77
2021/06/14 11:13:50;;;;;;;115.45;11.73;;;;;;;20.34;59.47;100189.91;5053213;28;20033;-78
2021/06/14 11:16:17;;;;;;;12.60;3.15;;;;;;;20.18;57.53;100183.03;5061873;28;20071;-82
2021/06/14 11:18:43;;;;;;;7.97;2.72;;;;;;;20.04;57.28;100191.00;5066717;28;20051;-76
2021/06/14 11:21:13;;;;;;;9.27;2.65;;;;;;;19.55;59.49;100127.53;5059695;28;20468;-81
2021/06/14 11:23:41;;;;;;;4.00;2.13;;;;;;;19.60;57.34;100161.56;5057559;28;20484;-81
2021/06/14 11:26:10;;;;;;;4.35;2.35;;;;;;;19.19;60.42;100142.53;5056666;28;20023;-77
2021/06/14 11:28:39;;;;;;;5.82;2.60;;;;;;;19.36;62.38;100175.59;5066579;28;20111;-75
2021/06/14 11:31:19;;;;;;;6.10;2.92;;;;;;;19.30;62.44;100133.75;5069234;28;20024;-76
2021/06/14 11:33:46;;;;;;;9.80;2.72;;;;;;;19.85;59.57;100180.66;5069356;28;20025;-76
2021/06/14 11:36:14;;;;;;;6.93;2.67;;;;;;;19.96;59.47;100179.69;5063516;28;20028;-74
2021/06/14 11:38:40;;;;;;;6.53;2.92;;;;;;;20.07;59.23;100174.41;5068168;28;20025;-74
2021/06/14 11:41:06;;;;;;;3.53;2.45;;;;;;;20.14;57.93;100166.47;5064149;28;20483;-77
2021/06/14 11:43:31;;;;;;;8.45;2.63;;;;;;;20.32;57.92;100175.94;5065904;28;20032;-77
2021/06/14 11:45:59;;;;;;;4.82;2.17;;;;;;;20.35;56.24;100181.16;5058848;28;20047;-79
2021/06/14 11:48:30;;;;;;;3.92;2.42;;;;;;;20.44;53.87;100176.75;5060644;28;20036;-78
2021/06/14 11:51:04;;;;;;;6.32;2.30;;;;;;;20.46;54.86;100181.09;5063218;28;20079;-83
2021/06/14 11:53:54;;;;;;;4.45;2.33;;;;;;;20.48;56.22;100175.81;5052685;28;20029;-81
2021/06/14 11:56:20;;;;;;;;;;;;;;;20.56;55.96;100178.38;5060251;28;20035;-79